Time;durP1;ratioP1;P1;durP2;ratioP2;P2;SDS_P1;SDS_P2;PMS_P1;PMS_P2;Temp;Humidity;BMP_temperature;BMP_pressure;BME280_temperature;BME280_humidity;BME280_pressure;Samples;Min_cycle;Max_cycle;Signal;HPM_P1;HPM_P2
2023/06/24 00:01:26;;;;;;;11.23;8.75;;;;;;;;;;5037435;28;20055;-75
2023/06/24 00:03:53;;;;;;;10.93;9.05;;;;;;;;;;5032449;28;20500;-75
2023/06/24 00:06:25;;;;;;;12.15;9.13;;;;;;;;;;5035484;28;20041;-74
2023/06/24 00:08:51;;;;;;;11.02;9.20;;;;;;;;;;5035993;28;20042;-73
2023/06/24 00:11:17;;;;;;;12.48;9.07;;;;;;;;;;5035321;28;20057;-74
2023/06/24 00:13:44;;;;;;;12.25;9.07;;;;;;;;;;5036228;28;20052;-74
2023/06/24 00:16:10;;;;;;;10.35;8.30;;;;;;;;;;5036794;28;20466;-76
2023/06/24 00:18:41;;;;;;;12.65;8.77;;;;;;;;;;5035777;28;20051;-75
2023/06/24 00:21:07;;;;;;;15.75;9.05;;;;;;;;;;5035246;28;20049;-75
2023/06/24 00:23:36;;;;;;;11.18;8.85;;;;;;;;;;5038466;28;20091;-74
2023/06/24 00:26:02;;;;;;;11.70;8.57;;;;;;;;;;5017165;28;20085;-74
2023/06/24 00:28:28;;;;;;;10.63;8.38;;;;;;;;;;5034887;28;20480;-74
2023/06/24 00:30:56;;;;;;;11.20;9.13;;;;;;;;;;5032684;28;20077;-74
2023/06/24 00:33:22;;;;;;;12.02;8.48;;;;;;;;;;5037100;28;20049;-74
2023/06/24 00:35:48;;;;;;;11.13;8.45;;;;;;;;;;5035902;28;20049;-74
2023/06/24 00:38:14;;;;;;;9.70;7.80;;;;;;;;;;5033759;28;20388;-74
2023/06/24 00:40:40;;;;;;;10.63;8.73;;;;;;;;;;5034888;28;20041;-74
2023/06/24 00:43:07;;;;;;;11.90;8.98;;;;;;;;;;5034989;28;20448;-74
2023/06/24 00:45:33;;;;;;;12.70;9.55;;;;;;;;;;5026654;28;20472;-75
2023/06/24 00:48:00;;;;;;;12.10;10.68;;;;;;;;;;5035757;28;20037;-73
2023/06/24 00:50:26;;;;;;;12.65;10.43;;;;;;;;;;5036317;28;20037;-74
2023/06/24 00:52:52;;;;;;;11.25;9.60;;;;;;;;;;5037524;28;20049;-74
2023/06/24 00:55:20;;;;;;;12.32;10.23;;;;;;;;;;5036066;28;20045;-75
2023/06/24 00:57:51;;;;;;;16.52;11.50;;;;;;;;;;5036995;28;20175;-74
2023/06/24 01:00:18;;;;;;;12.98;11.50;;;;;;;;;;5032746;28;20049;-75
2023/06/24 01:02:45;;;;;;;13.13;11.20;;;;;;;;;;5031711;28;20037;-75
2023/06/24 01:05:11;;;;;;;13.65;11.35;;;;;;;;;;5031943;28;20049;-74
2023/06/24 01:07:41;;;;;;;14.95;11.35;;;;;;;;;;5034613;28;20565;-75
2023/06/24 01:10:08;;;;;;;12.57;11.25;;;;;;;;;;5034964;28;20073;-75
2023/06/24 01:12:35;;;;;;;16.05;11.30;;;;;;;;;;5036675;28;20095;-75
2023/06/24 01:15:01;;;;;;;14.20;11.15;;;;;;;;;;5036282;28;20050;-74
2023/06/24 01:17:39;;;;;;;12.88;11.05;;;;;;;;;;5016607;28;20042;-75
2023/06/24 01:20:12;;;;;;;12.57;9.88;;;;;;;;;;5029904;28;20395;-74
2023/06/24 01:22:47;;;;;;;13.43;10.68;;;;;;;;;;5032351;28;20121;-75
2023/06/24 01:25:19;;;;;;;13.32;11.00;;;;;;;;;;5025641;28;21431;-74
2023/06/24 01:28:04;;;;;;;15.00;11.65;;;;;;;;;;5034864;28;20037;-74
2023/06/24 01:30:53;;;;;;;16.25;10.80;;;;;;;;;;5035693;28;20045;-75
2023/06/24 01:33:37;;;;;;;16.20;10.77;;;;;;;;;;5038091;28;20546;-75
2023/06/24 01:36:05;;;;;;;12.25;10.95;;;;;;;;;;5041109;28;20048;-75
2023/06/24 01:38:34;;;;;;;12.02;9.65;;;;;;;;;;5040714;28;20434;-75
2023/06/24 01:41:01;;;;;;;13.75;11.65;;;;;;;;;;5036076;28;20045;-75
2023/06/24 01:43:27;;;;;;;13.95;12.15;;;;;;;;;;5037712;28;20041;-75
2023/06/24 01:45:55;;;;;;;13.73;11.65;;;;;;;;;;5016996;28;20048;-75
2023/06/24 01:48:26;;;;;;;15.10;11.50;;;;;;;;;;5035910;28;20066;-77
2023/06/24 01:51:08;;;;;;;15.30;12.57;;;;;;;;;;5034812;28;20049;-75
2023/06/24 01:53:35;;;;;;;13.85;11.68;;;;;;;;;;5036447;28;20037;-75
2023/06/24 01:56:02;;;;;;;14.32;12.10;;;;;;;;;;5035323;28;20092;-74
2023/06/24 01:58:29;;;;;;;15.02;11.60;;;;;;;;;;5036679;28;20048;-76
2023/06/24 02:00:55;;;;;;;16.30;12.88;;;;;;;;;;5032398;28;20038;-74
2023/06/24 02:03:22;;;;;;;14.50;11.95;;;;;;;;;;5035061;28;20042;-75
2023/06/24 02:05:48;;;;;;;15.90;12.75;;;;;;;;;;5035416;28;20103;-75
2023/06/24 02:08:14;;;;;;;13.90;12.45;;;;;;;;;;5033394;28;20092;-75
2023/06/24 02:10:41;;;;;;;14.00;11.85;;;;;;;;;;5033189;28;20503;-75
2023/06/24 02:13:08;;;;;;;14.23;12.73;;;;;;;;;;5031661;28;20472;-74
2023/06/24 02:15:35;;;;;;;15.20;12.13;;;;;;;;;;5035186;28;20071;-75
2023/06/24 02:18:02;;;;;;;13.23;11.73;;;;;;;;;;5035817;28;20106;-75
2023/06/24 02:20:29;;;;;;;14.95;11.82;;;;;;;;;;5033711;28;20049;-75
2023/06/24 02:22:56;;;;;;;14.25;11.68;;;;;;;;;;5034781;28;20046;-75
2023/06/24 02:25:23;;;;;;;14.43;11.70;;;;;;;;;;5035336;28;20038;-74
2023/06/24 02:27:49;;;;;;;14.23;11.23;;;;;;;;;;5038300;28;20041;-74
2023/06/24 02:30:15;;;;;;;13.57;11.70;;;;;;;;;;5035881;28;20696;-74
2023/06/24 02:32:42;;;;;;;14.68;11.60;;;;;;;;;;5038362;28;20049;-74
2023/06/24 02:35:08;;;;;;;13.30;11.50;;;;;;;;;;5038243;28;20052;-74
2023/06/24 02:37:34;;;;;;;15.65;11.52;;;;;;;;;;5039292;28;20051;-75
2023/06/24 02:40:01;;;;;;;13.38;10.77;;;;;;;;;;5040404;28;20049;-76
2023/06/24 02:42:28;;;;;;;13.68;11.30;;;;;;;;;;5040968;28;20072;-74
2023/06/24 02:44:54;;;;;;;12.77;10.48;;;;;;;;;;5038015;28;20045;-75
2023/06/24 02:47:21;;;;;;;12.13;10.40;;;;;;;;;;5039552;28;20050;-74
2023/06/24 02:49:48;;;;;;;15.60;10.73;;;;;;;;;;5038126;28;20048;-75
2023/06/24 02:52:14;;;;;;;14.05;11.45;;;;;;;;;;5039087;28;20053;-75
2023/06/24 02:54:40;;;;;;;13.25;11.10;;;;;;;;;;5036029;28;20037;-74
2023/06/24 02:57:07;;;;;;;12.20;10.80;;;;;;;;;;5043092;28;20042;-74
2023/06/24 02:59:33;;;;;;;12.65;10.55;;;;;;;;;;5041642;28;20868;-75
2023/06/24 03:02:00;;;;;;;14.48;11.60;;;;;;;;;;5040481;28;20073;-74
2023/06/24 03:04:26;;;;;;;15.10;10.85;;;;;;;;;;5038422;28;20037;-75
2023/06/24 03:06:53;;;;;;;12.77;11.05;;;;;;;;;;5041049;28;20053;-75
2023/06/24 03:09:19;;;;;;;15.90;11.60;;;;;;;;;;5037582;28;20048;-76
2023/06/24 03:11:45;;;;;;;13.30;11.90;;;;;;;;;;5039451;28;20053;-75
2023/06/24 03:14:12;;;;;;;16.33;12.80;;;;;;;;;;5038884;28;20480;-75
2023/06/24 03:16:38;;;;;;;15.77;12.02;;;;;;;;;;5023340;28;20499;-75
2023/06/24 03:19:04;;;;;;;24.00;13.50;;;;;;;;;;5035982;28;20052;-74
2023/06/24 03:21:31;;;;;;;14.48;12.45;;;;;;;;;;5040918;28;20049;-73
2023/06/24 03:23:59;;;;;;;13.75;12.35;;;;;;;;;;5039187;28;20050;-75
2023/06/24 03:26:36;;;;;;;14.57;11.77;;;;;;;;;;5041280;28;20050;-76
2023/06/24 03:29:03;;;;;;;14.80;12.35;;;;;;;;;;5040736;28;20053;-75
2023/06/24 03:31:29;;;;;;;16.73;12.35;;;;;;;;;;5040112;28;20044;-75
2023/06/24 03:33:55;;;;;;;13.02;11.57;;;;;;;;;;5040146;28;20171;-74
2023/06/24 03:36:21;;;;;;;14.27;12.05;;;;;;;;;;5041692;28;20053;-74
2023/06/24 03:38:48;;;;;;;14.02;11.13;;;;;;;;;;5039721;28;20049;-74
2023/06/24 03:41:14;;;;;;;12.82;11.15;;;;;;;;;;5039893;28;20165;-75
2023/06/24 03:43:41;;;;;;;14.18;10.93;;;;;;;;;;5031497;28;20124;-74
2023/06/24 03:46:07;;;;;;;15.27;11.25;;;;;;;;;;5036395;28;20038;-74
2023/06/24 03:48:34;;;;;;;14.38;11.40;;;;;;;;;;5037619;28;20087;-74
2023/06/24 03:51:00;;;;;;;16.95;11.07;;;;;;;;;;5032665;28;20412;-74
2023/06/24 03:53:26;;;;;;;14.90;11.73;;;;;;;;;;5032341;28;20462;-73
2023/06/24 03:55:52;;;;;;;13.95;11.13;;;;;;;;;;5043050;28;20049;-74
2023/06/24 03:58:20;;;;;;;13.23;10.40;;;;;;;;;;5042083;28;20151;-75
2023/06/24 04:00:49;;;;;;;15.02;10.88;;;;;;;;;;5041134;28;20056;-74
2023/06/24 04:03:17;;;;;;;13.85;10.45;;;;;;;;;;5039040;28;20042;-74
2023/06/24 04:05:43;;;;;;;13.48;10.85;;;;;;;;;;5032938;28;20107;-74
2023/06/24 04:08:09;;;;;;;15.05;11.05;;;;;;;;;;5038552;28;20045;-76
2023/06/24 04:10:36;;;;;;;13.00;10.23;;;;;;;;;;5037810;28;20053;-76
2023/06/24 04:13:02;;;;;;;14.30;10.60;;;;;;;;;;5037500;28;20503;-76
2023/06/24 04:15:28;;;;;;;14.05;10.77;;;;;;;;;;5034715;28;20049;-75
2023/06/24 04:17:54;;;;;;;12.88;10.57;;;;;;;;;;5038686;28;20144;-74
2023/06/24 04:20:20;;;;;;;11.85;9.93;;;;;;;;;;5033598;28;20061;-74
2023/06/24 04:22:46;;;;;;;13.95;9.20;;;;;;;;;;5029502;28;20053;-75
2023/06/24 04:25:12;;;;;;;12.35;9.52;;;;;;;;;;5038680;28;20056;-75
2023/06/24 04:27:38;;;;;;;13.25;9.93;;;;;;;;;;5039532;28;20049;-75
2023/06/24 04:30:05;;;;;;;12.77;9.55;;;;;;;;;;5036438;28;20055;-74
2023/06/24 04:32:31;;;;;;;11.32;9.05;;;;;;;;;;5032982;28;20056;-75
2023/06/24 04:34:59;;;;;;;12.43;8.77;;;;;;;;;;5040097;28;20395;-75
2023/06/24 04:37:25;;;;;;;11.60;8.38;;;;;;;;;;5040440;28;20072;-74
2023/06/24 04:39:51;;;;;;;11.13;9.15;;;;;;;;;;5029018;28;20147;-75
2023/06/24 04:42:17;;;;;;;12.10;9.57;;;;;;;;;;5037642;28;20061;-74
2023/06/24 04:44:43;;;;;;;10.68;8.77;;;;;;;;;;5038743;28;20084;-75
2023/06/24 04:47:09;;;;;;;11.02;8.98;;;;;;;;;;5031556;28;20048;-75
2023/06/24 04:49:35;;;;;;;12.50;9.40;;;;;;;;;;5034884;28;20052;-75
2023/06/24 04:52:02;;;;;;;11.88;8.98;;;;;;;;;;5038116;28;20128;-74
2023/06/24 04:54:28;;;;;;;11.95;9.85;;;;;;;;;;5017250;28;20045;-74
2023/06/24 04:56:57;;;;;;;15.13;10.40;;;;;;;;;;5036574;28;20065;-75
2023/06/24 04:59:23;;;;;;;11.88;9.35;;;;;;;;;;5033938;28;20056;-74
2023/06/24 05:01:49;;;;;;;11.15;8.75;;;;;;;;;;5036057;28;20124;-74
2023/06/24 05:04:15;;;;;;;13.90;10.15;;;;;;;;;;5035759;28;20049;-74
2023/06/24 05:06:41;;;;;;;12.57;10.05;;;;;;;;;;5032864;28;20626;-74
2023/06/24 05:09:08;;;;;;;13.63;10.43;;;;;;;;;;5032516;28;20113;-75
2023/06/24 05:11:34;;;;;;;14.30;10.52;;;;;;;;;;5037917;28;20057;-74
2023/06/24 05:14:00;;;;;;;14.00;10.05;;;;;;;;;;5038088;28;20053;-73
2023/06/24 05:16:26;;;;;;;15.60;10.98;;;;;;;;;;5037238;28;20080;-74
2023/06/24 05:18:52;;;;;;;12.77;10.48;;;;;;;;;;5037313;28;20072;-74
2023/06/24 05:21:18;;;;;;;13.27;11.00;;;;;;;;;;5029713;28;20236;-74
2023/06/24 05:23:44;;;;;;;12.82;11.15;;;;;;;;;;5031298;28;20049;-74
2023/06/24 05:26:11;;;;;;;11.60;10.38;;;;;;;;;;5038619;28;20053;-74
2023/06/24 05:28:37;;;;;;;12.50;10.35;;;;;;;;;;5035237;28;20053;-74
2023/06/24 05:31:03;;;;;;;13.77;10.13;;;;;;;;;;5036686;28;20041;-74
2023/06/24 05:33:29;;;;;;;11.63;9.98;;;;;;;;;;5035163;28;20041;-74
2023/06/24 05:35:55;;;;;;;14.90;9.68;;;;;;;;;;5029296;28;20040;-74
2023/06/24 05:38:21;;;;;;;13.02;9.35;;;;;;;;;;5048773;28;20048;-74
2023/06/24 05:40:47;;;;;;;11.95;8.88;;;;;;;;;;5037107;28;20053;-75
2023/06/24 05:43:13;;;;;;;12.30;8.95;;;;;;;;;;5030212;28;20049;-73
2023/06/24 05:45:39;;;;;;;11.30;9.27;;;;;;;;;;5035688;28;20053;-75
2023/06/24 05:48:06;;;;;;;10.30;8.80;;;;;;;;;;5038450;28;20080;-75
2023/06/24 05:50:32;;;;;;;9.82;7.90;;;;;;;;;;5035952;28;20057;-75
2023/06/24 05:52:58;;;;;;;11.90;7.88;;;;;;;;;;5037802;28;20124;-74
2023/06/24 05:55:24;;;;;;;9.85;8.00;;;;;;;;;;5034434;28;20041;-75
2023/06/24 05:57:50;;;;;;;11.02;7.80;;;;;;;;;;5035307;28;20044;-74
2023/06/24 06:00:18;;;;;;;11.70;8.02;;;;;;;;;;5036744;28;20056;-74
2023/06/24 06:02:44;;;;;;;11.13;8.25;;;;;;;;;;5034988;28;20073;-73
2023/06/24 06:05:10;;;;;;;12.00;8.02;;;;;;;;;;5034199;28;20072;-73
2023/06/24 06:07:39;;;;;;;11.23;7.95;;;;;;;;;;5031257;28;20415;-73
2023/06/24 06:10:06;;;;;;;9.85;7.68;;;;;;;;;;5034935;28;20045;-74
2023/06/24 06:12:32;;;;;;;9.73;7.80;;;;;;;;;;5037875;28;20061;-74
2023/06/24 06:14:58;;;;;;;11.05;7.80;;;;;;;;;;5038408;28;20050;-73
2023/06/24 06:17:24;;;;;;;10.15;7.72;;;;;;;;;;5036724;28;20049;-74
2023/06/24 06:19:50;;;;;;;11.52;7.82;;;;;;;;;;5039910;28;20137;-74
2023/06/24 06:22:17;;;;;;;12.02;8.35;;;;;;;;;;5037919;28;20068;-74
2023/06/24 06:24:43;;;;;;;10.13;7.25;;;;;;;;;;5037683;28;20487;-74
2023/06/24 06:27:13;;;;;;;9.18;7.43;;;;;;;;;;5034841;28;20050;-74
2023/06/24 06:29:39;;;;;;;10.57;7.18;;;;;;;;;;5036765;28;20049;-73
2023/06/24 06:32:06;;;;;;;9.18;7.20;;;;;;;;;;5035170;28;20053;-73
2023/06/24 06:34:32;;;;;;;11.52;7.20;;;;;;;;;;5034547;28;20038;-74
2023/06/24 06:36:58;;;;;;;7.47;6.60;;;;;;;;;;5035263;28;20048;-73
2023/06/24 06:39:24;;;;;;;9.57;6.35;;;;;;;;;;5035542;28;20486;-74
2023/06/24 06:41:50;;;;;;;8.45;6.03;;;;;;;;;;5036842;28;20044;-74
2023/06/24 06:44:16;;;;;;;11.13;5.85;;;;;;;;;;5036588;28;20057;-75
2023/06/24 06:46:42;;;;;;;9.73;5.75;;;;;;;;;;5035551;28;20076;-73
2023/06/24 06:49:08;;;;;;;10.70;5.70;;;;;;;;;;5034952;28;20045;-74
2023/06/24 06:51:34;;;;;;;8.20;6.05;;;;;;;;;;5033773;28;20049;-74
2023/06/24 06:54:01;;;;;;;9.57;5.38;;;;;;;;;;5034659;28;20406;-73
2023/06/24 06:56:27;;;;;;;7.68;5.38;;;;;;;;;;5018864;28;20053;-74
2023/06/24 06:58:53;;;;;;;8.18;5.43;;;;;;;;;;5035867;28;20132;-74
2023/06/24 07:01:20;;;;;;;9.38;5.22;;;;;;;;;;5031667;28;20064;-74
2023/06/24 07:03:46;;;;;;;7.22;5.55;;;;;;;;;;5035889;28;20055;-74
2023/06/24 07:06:12;;;;;;;8.07;4.82;;;;;;;;;;5035851;28;20045;-74
2023/06/24 07:08:38;;;;;;;7.50;5.00;;;;;;;;;;5034530;28;20099;-74
2023/06/24 07:11:04;;;;;;;7.18;4.80;;;;;;;;;;5034931;28;20058;-74
2023/06/24 07:13:30;;;;;;;8.18;5.50;;;;;;;;;;5037918;28;20120;-73
2023/06/24 07:15:56;;;;;;;8.02;5.97;;;;;;;;;;5039042;28;20128;-73
2023/06/24 07:18:23;;;;;;;8.38;5.53;;;;;;;;;;5039465;28;20045;-74
2023/06/24 07:20:49;;;;;;;8.07;5.20;;;;;;;;;;5040056;28;20060;-74
2023/06/24 07:23:15;;;;;;;8.35;6.43;;;;;;;;;;5035210;28;20057;-74
2023/06/24 07:25:41;;;;;;;6.95;4.97;;;;;;;;;;5039728;28;20037;-74
2023/06/24 07:28:07;;;;;;;8.30;5.40;;;;;;;;;;5039254;28;20137;-74
2023/06/24 07:30:33;;;;;;;9.20;5.30;;;;;;;;;;5038715;28;20045;-74
2023/06/24 07:33:05;;;;;;;11.05;5.53;;;;;;;;;;5038833;28;20388;-73
2023/06/24 07:35:32;;;;;;;6.95;4.90;;;;;;;;;;5040273;28;20053;-74
2023/06/24 07:37:58;;;;;;;9.05;4.82;;;;;;;;;;5040154;28;20056;-74
2023/06/24 07:40:24;;;;;;;8.27;4.95;;;;;;;;;;5039778;28;20075;-74
2023/06/24 07:42:50;;;;;;;8.35;5.32;;;;;;;;;;5039135;28;20046;-74
2023/06/24 07:45:16;;;;;;;9.38;6.22;;;;;;;;;;5040773;28;20052;-73
2023/06/24 07:47:42;;;;;;;8.43;5.40;;;;;;;;;;5040242;28;20045;-76
2023/06/24 07:50:10;;;;;;;8.98;5.85;;;;;;;;;;5041628;28;20128;-75
2023/06/24 07:52:37;;;;;;;8.23;5.97;;;;;;;;;;5037163;28;20037;-74
2023/06/24 07:55:03;;;;;;;8.15;6.15;;;;;;;;;;5040187;28;20125;-74
2023/06/24 07:57:29;;;;;;;11.68;6.45;;;;;;;;;;5040992;28;20050;-74
2023/06/24 07:59:56;;;;;;;10.32;6.88;;;;;;;;;;5039272;28;20052;-75
2023/06/24 08:02:23;;;;;;;10.23;6.93;;;;;;;;;;5036746;28;20097;-74
2023/06/24 08:04:50;;;;;;;10.73;6.90;;;;;;;;;;5038197;28;20049;-73
2023/06/24 08:07:16;;;;;;;9.98;6.55;;;;;;;;;;5039953;28;20048;-74
2023/06/24 08:09:42;;;;;;;8.75;6.30;;;;;;;;;;5038866;28;20053;-75
2023/06/24 08:12:08;;;;;;;10.32;7.05;;;;;;;;;;5040794;28;20056;-75
2023/06/24 08:14:35;;;;;;;10.50;7.40;;;;;;;;;;5036447;28;20508;-75
2023/06/24 08:17:01;;;;;;;11.23;6.80;;;;;;;;;;5037833;28;20446;-75
2023/06/24 08:19:27;;;;;;;9.88;6.03;;;;;;;;;;5039957;28;20137;-75
2023/06/24 08:21:53;;;;;;;10.07;6.55;;;;;;;;;;5040515;28;20042;-75
2023/06/24 08:24:19;;;;;;;8.07;5.97;;;;;;;;;;5039510;28;20049;-75
2023/06/24 08:26:45;;;;;;;10.13;5.80;;;;;;;;;;5038661;28;20053;-74
2023/06/24 08:29:11;;;;;;;8.50;5.43;;;;;;;;;;5038441;28;20055;-75
2023/06/24 08:31:37;;;;;;;10.90;5.32;;;;;;;;;;5041341;28;20054;-74
2023/06/24 08:34:05;;;;;;;9.93;5.95;;;;;;;;;;5039785;28;20072;-74
2023/06/24 08:36:32;;;;;;;10.77;5.20;;;;;;;;;;5044075;28;20385;-74
2023/06/24 08:38:58;;;;;;;7.80;4.65;;;;;;;;;;5041367;28;20045;-75
2023/06/24 08:41:24;;;;;;;7.65;5.22;;;;;;;;;;5040837;28;20063;-75
2023/06/24 08:43:51;;;;;;;7.15;4.72;;;;;;;;;;5039314;28;20071;-74
2023/06/24 08:46:18;;;;;;;10.02;4.75;;;;;;;;;;5038032;28;20483;-74
2023/06/24 08:48:45;;;;;;;6.57;4.20;;;;;;;;;;5036722;28;20073;-73
2023/06/24 08:51:14;;;;;;;7.22;4.70;;;;;;;;;;5039815;28;20156;-74
2023/06/24 08:53:43;;;;;;;9.00;5.40;;;;;;;;;;5040431;28;20050;-75
2023/06/24 08:56:10;;;;;;;9.63;5.32;;;;;;;;;;5037772;28;20120;-75
2023/06/24 08:58:36;;;;;;;7.47;4.45;;;;;;;;;;5036651;28;20084;-74
2023/06/24 09:01:02;;;;;;;11.00;4.50;;;;;;;;;;5036871;28;20072;-74
2023/06/24 09:03:29;;;;;;;8.95;5.00;;;;;;;;;;5036881;28;20490;-75
2023/06/24 09:05:55;;;;;;;6.88;4.40;;;;;;;;;;5036980;28;20045;-74
2023/06/24 09:08:22;;;;;;;6.32;4.18;;;;;;;;;;5039551;28;20407;-73
2023/06/24 09:10:54;;;;;;;7.88;4.68;;;;;;;;;;5039230;28;20045;-75
2023/06/24 09:13:20;;;;;;;6.80;4.22;;;;;;;;;;5038867;28;20045;-75
2023/06/24 09:15:46;;;;;;;7.07;4.50;;;;;;;;;;5039522;28;20045;-74
2023/06/24 09:18:12;;;;;;;8.38;5.72;;;;;;;;;;5038791;28;20042;-75
2023/06/24 09:20:44;;;;;;;8.38;5.53;;;;;;;;;;5037753;28;20133;-75
2023/06/24 09:23:10;;;;;;;8.30;5.05;;;;;;;;;;5037703;28;20613;-75
2023/06/24 09:25:36;;;;;;;9.98;5.72;;;;;;;;;;5038744;28;20393;-75
2023/06/24 09:28:03;;;;;;;9.20;5.97;;;;;;;;;;5041233;28;20080;-73
2023/06/24 09:30:29;;;;;;;9.23;5.85;;;;;;;;;;5034648;28;20041;-73
2023/06/24 09:32:55;;;;;;;10.85;5.85;;;;;;;;;;5039166;28;20109;-75
2023/06/24 09:35:23;;;;;;;9.07;6.03;;;;;;;;;;5038588;28;20542;-74
2023/06/24 09:37:52;;;;;;;9.80;5.47;;;;;;;;;;5039240;28;20388;-75
2023/06/24 09:40:19;;;;;;;9.50;5.78;;;;;;;;;;5037154;28;20049;-74
2023/06/24 09:42:56;;;;;;;8.05;5.90;;;;;;;;;;5038593;28;20041;-74
2023/06/24 09:45:23;;;;;;;10.73;6.57;;;;;;;;;;5037718;28;20052;-74
2023/06/24 09:47:49;;;;;;;10.52;6.07;;;;;;;;;;5036997;28;20120;-74
2023/06/24 09:50:15;;;;;;;7.55;4.88;;;;;;;;;;5034465;28;20402;-74
2023/06/24 09:52:41;;;;;;;11.90;5.30;;;;;;;;;;5037324;28;20056;-74
2023/06/24 09:55:08;;;;;;;8.65;5.18;;;;;;;;;;5035900;28;20124;-74
2023/06/24 09:57:36;;;;;;;8.68;5.40;;;;;;;;;;5036757;28;20090;-73
2023/06/24 10:00:03;;;;;;;8.30;6.13;;;;;;;;;;5036432;28;20057;-75
2023/06/24 10:02:30;;;;;;;8.85;6.43;;;;;;;;;;5036699;28;20120;-75
2023/06/24 10:04:56;;;;;;;9.15;5.35;;;;;;;;;;5035648;28;20057;-74
2023/06/24 10:07:22;;;;;;;8.90;5.68;;;;;;;;;;5020695;28;20117;-74
2023/06/24 10:09:49;;;;;;;10.20;5.00;;;;;;;;;;5036781;28;20058;-74
2023/06/24 10:12:15;;;;;;;9.30;4.82;;;;;;;;;;5033150;28;20049;-73
2023/06/24 10:14:41;;;;;;;7.00;4.65;;;;;;;;;;5039724;28;20120;-75
2023/06/24 10:17:07;;;;;;;8.18;5.45;;;;;;;;;;5046620;28;20049;-74
2023/06/24 10:19:40;;;;;;;6.50;4.40;;;;;;;;;;5051206;28;20041;-73
2023/06/24 10:22:11;;;;;;;8.35;5.13;;;;;;;;;;5038023;28;20062;-75
2023/06/24 10:24:42;;;;;;;9.38;5.90;;;;;;;;;;5037041;28;20049;-74
2023/06/24 10:27:18;;;;;;;10.30;4.78;;;;;;;;;;5037379;28;20341;-74
2023/06/24 10:29:47;;;;;;;8.13;5.88;;;;;;;;;;5036021;28;20045;-74
2023/06/24 10:32:14;;;;;;;9.00;5.10;;;;;;;;;;5035196;28;20049;-74
2023/06/24 10:34:47;;;;;;;7.43;5.18;;;;;;;;;;5035199;28;20049;-74
2023/06/24 10:37:26;;;;;;;7.57;4.60;;;;;;;;;;5037119;28;20052;-75
2023/06/24 10:39:56;;;;;;;8.60;5.65;;;;;;;;;;5036167;28;20068;-75
2023/06/24 10:42:28;;;;;;;9.30;5.90;;;;;;;;;;5038332;28;20049;-74
2023/06/24 10:44:55;;;;;;;7.63;4.93;;;;;;;;;;5037015;28;20042;-75
2023/06/24 10:47:22;;;;;;;6.60;5.18;;;;;;;;;;5030765;28;20054;-74
2023/06/24 10:49:49;;;;;;;7.93;4.22;;;;;;;;;;5040167;28;20101;-73
2023/06/24 10:52:15;;;;;;;6.95;4.20;;;;;;;;;;5042288;28;20061;-75
2023/06/24 10:54:41;;;;;;;6.95;4.07;;;;;;;;;;5041520;28;20037;-73
2023/06/24 10:57:08;;;;;;;7.90;5.10;;;;;;;;;;5044247;28;20049;-74
2023/06/24 10:59:47;;;;;;;9.23;5.70;;;;;;;;;;5041981;28;20052;-74
2023/06/24 11:02:17;;;;;;;7.63;4.75;;;;;;;;;;5022792;28;20511;-73
2023/06/24 11:04:44;;;;;;;7.45;4.45;;;;;;;;;;5026477;28;20060;-74
2023/06/24 11:07:10;;;;;;;7.88;4.43;;;;;;;;;;5039630;28;20124;-74
2023/06/24 11:09:36;;;;;;;7.60;3.95;;;;;;;;;;5040177;28;20131;-74
2023/06/24 11:12:05;;;;;;;6.30;3.85;;;;;;;;;;5039745;28;20081;-73
2023/06/24 11:14:34;;;;;;;7.38;3.85;;;;;;;;;;5033838;28;20124;-74
2023/06/24 11:17:04;;;;;;;6.90;3.50;;;;;;;;;;5039756;28;20187;-74
2023/06/24 11:19:31;;;;;;;7.38;3.17;;;;;;;;;;5039262;28;20045;-75
2023/06/24 11:22:03;;;;;;;6.13;3.92;;;;;;;;;;5040968;28;20438;-75
2023/06/24 11:24:29;;;;;;;7.15;3.70;;;;;;;;;;5039746;28;20415;-75
2023/06/24 11:26:56;;;;;;;6.45;3.50;;;;;;;;;;5040678;28;20041;-74
2023/06/24 11:29:22;;;;;;;7.75;3.33;;;;;;;;;;5039881;28;20175;-73
2023/06/24 11:31:49;;;;;;;5.78;3.53;;;;;;;;;;5048352;28;20045;-74
2023/06/24 11:34:15;;;;;;;8.20;3.80;;;;;;;;;;5048739;28;20442;-74
2023/06/24 11:36:41;;;;;;;7.43;4.28;;;;;;;;;;5047993;28;20490;-74
2023/06/24 11:39:07;;;;;;;6.95;3.58;;;;;;;;;;5040495;28;20127;-74
2023/06/24 11:41:34;;;;;;;6.90;3.47;;;;;;;;;;5042408;28;20045;-74
2023/06/24 11:44:00;;;;;;;14.43;3.75;;;;;;;;;;5040283;28;20038;-73
2023/06/24 11:46:35;;;;;;;13.35;3.92;;;;;;;;;;5040488;28;20412;-73
2023/06/24 11:49:10;;;;;;;7.20;3.80;;;;;;;;;;5040755;28;20052;-73
2023/06/24 11:51:36;;;;;;;17.85;4.20;;;;;;;;;;5039401;28;20037;-72
2023/06/24 11:54:04;;;;;;;28.38;4.60;;;;;;;;;;5035867;28;20132;-71
2023/06/24 11:56:37;;;;;;;8.38;3.60;;;;;;;;;;5034939;28;20113;-72
2023/06/24 11:59:08;;;;;;;30.17;4.90;;;;;;;;;;5035748;28;20050;-72
2023/06/24 12:01:36;;;;;;;31.63;4.55;;;;;;;;;;5035724;28;20064;-71
2023/06/24 12:04:10;;;;;;;30.58;4.63;;;;;;;;;;5036438;28;20148;-71
2023/06/24 12:06:36;;;;;;;6.63;3.25;;;;;;;;;;5035402;28;20124;-72
2023/06/24 12:09:02;;;;;;;6.05;3.47;;;;;;;;;;5035441;28;20128;-71
2023/06/24 12:11:28;;;;;;;7.82;3.20;;;;;;;;;;5034386;28;20148;-70
2023/06/24 12:13:54;;;;;;;5.53;2.97;;;;;;;;;;5034867;28;20045;-71
2023/06/24 12:16:22;;;;;;;6.25;3.17;;;;;;;;;;5035576;28;20121;-71
2023/06/24 12:18:49;;;;;;;5.95;3.42;;;;;;;;;;5035028;28;20049;-72
2023/06/24 12:21:15;;;;;;;5.43;3.20;;;;;;;;;;5036137;28;20188;-71
2023/06/24 12:23:41;;;;;;;6.82;3.47;;;;;;;;;;5034850;28;20042;-71
2023/06/24 12:26:07;;;;;;;8.38;3.30;;;;;;;;;;5033654;28;20068;-72
2023/06/24 12:28:33;;;;;;;6.05;3.80;;;;;;;;;;5031488;28;20045;-72
2023/06/24 12:30:59;;;;;;;6.20;3.40;;;;;;;;;;5034293;28;20038;-71
2023/06/24 12:33:25;;;;;;;7.43;3.40;;;;;;;;;;5034214;28;20046;-71
2023/06/24 12:35:51;;;;;;;6.72;3.30;;;;;;;;;;5036086;28;20049;-72
2023/06/24 12:38:18;;;;;;;5.28;3.28;;;;;;;;;;5036624;28;20117;-71
2023/06/24 12:40:44;;;;;;;8.57;3.42;;;;;;;;;;5034384;28;20484;-71
2023/06/24 12:43:11;;;;;;;5.40;3.30;;;;;;;;;;5033410;28;20681;-72
2023/06/24 12:45:38;;;;;;;5.50;3.25;;;;;;;;;;5033227;28;20128;-72
2023/06/24 12:48:04;;;;;;;6.82;3.15;;;;;;;;;;5035623;28;20057;-71
2023/06/24 12:50:31;;;;;;;6.78;3.22;;;;;;;;;;5034847;28;20407;-72
2023/06/24 12:52:58;;;;;;;5.80;3.70;;;;;;;;;;5034942;28;20553;-73
2023/06/24 12:55:24;;;;;;;5.45;3.55;;;;;;;;;;5033616;28;20511;-71
2023/06/24 12:57:50;;;;;;;8.45;3.45;;;;;;;;;;5026665;28;20071;-71
2023/06/24 13:00:17;;;;;;;8.13;3.47;;;;;;;;;;5034492;28;20048;-72
2023/06/24 13:02:43;;;;;;;7.40;3.50;;;;;;;;;;5033539;28;20132;-72
2023/06/24 13:05:09;;;;;;;5.32;3.28;;;;;;;;;;5029680;28;20411;-71
2023/06/24 13:07:35;;;;;;;6.32;3.45;;;;;;;;;;5035469;28;20053;-73
2023/06/24 13:10:01;;;;;;;7.05;3.50;;;;;;;;;;5034613;28;20113;-72
2023/06/24 13:12:28;;;;;;;5.60;3.20;;;;;;;;;;5034287;28;20056;-71
2023/06/24 13:14:54;;;;;;;5.25;3.40;;;;;;;;;;5033915;28;20050;-72
2023/06/24 13:17:20;;;;;;;7.22;3.50;;;;;;;;;;5036029;28;20049;-72
2023/06/24 13:19:46;;;;;;;5.72;3.50;;;;;;;;;;5035627;28;20049;-71
2023/06/24 13:22:12;;;;;;;5.57;3.47;;;;;;;;;;5034686;28;20392;-72
2023/06/24 13:24:38;;;;;;;6.82;3.58;;;;;;;;;;5033241;28;20048;-71
2023/06/24 13:27:04;;;;;;;7.18;3.33;;;;;;;;;;5029408;28;20381;-72
2023/06/24 13:29:31;;;;;;;6.28;3.60;;;;;;;;;;5027699;28;20045;-71
2023/06/24 13:31:57;;;;;;;7.05;3.55;;;;;;;;;;5032705;28;20081;-72
2023/06/24 13:34:23;;;;;;;5.53;3.30;;;;;;;;;;5032175;28;20054;-71
2023/06/24 13:36:49;;;;;;;7.55;3.30;;;;;;;;;;5031370;28;20439;-72
2023/06/24 13:39:18;;;;;;;6.97;3.38;;;;;;;;;;5031272;28;20048;-72
2023/06/24 13:41:45;;;;;;;5.55;3.45;;;;;;;;;;5033703;28;20092;-72
2023/06/24 13:44:11;;;;;;;7.38;3.85;;;;;;;;;;5034506;28;20038;-73
2023/06/24 13:46:37;;;;;;;7.18;3.50;;;;;;;;;;5030930;28;20098;-72
2023/06/24 13:49:04;;;;;;;5.93;3.13;;;;;;;;;;5030844;28;20053;-71
2023/06/24 13:51:31;;;;;;;5.25;3.20;;;;;;;;;;5033978;28;20061;-73
2023/06/24 13:53:57;;;;;;;5.63;3.47;;;;;;;;;;5032691;28;20096;-73
2023/06/24 13:56:23;;;;;;;8.98;3.83;;;;;;;;;;5033658;28;20057;-72
2023/06/24 13:58:50;;;;;;;6.85;3.63;;;;;;;;;;5026316;28;20049;-72
2023/06/24 14:01:16;;;;;;;7.70;3.58;;;;;;;;;;5032642;28;20063;-72
2023/06/24 14:03:43;;;;;;;7.43;4.00;;;;;;;;;;5014657;28;20075;-70
2023/06/24 14:06:09;;;;;;;6.75;3.65;;;;;;;;;;5033710;28;20117;-72
2023/06/24 14:08:35;;;;;;;6.00;3.55;;;;;;;;;;5030158;28;20128;-71
2023/06/24 14:11:02;;;;;;;7.47;4.05;;;;;;;;;;5032341;28;20176;-71
2023/06/24 14:13:29;;;;;;;7.10;3.78;;;;;;;;;;5032737;28;20052;-72
2023/06/24 14:15:58;;;;;;;8.10;4.18;;;;;;;;;;5031188;28;20049;-71
2023/06/24 14:18:25;;;;;;;10.48;4.03;;;;;;;;;;5032658;28;20049;-71
2023/06/24 14:20:51;;;;;;;7.70;3.90;;;;;;;;;;5033879;28;20742;-72
2023/06/24 14:23:18;;;;;;;8.57;3.95;;;;;;;;;;5033245;28;20038;-72
2023/06/24 14:25:44;;;;;;;7.18;3.92;;;;;;;;;;5031578;28;20510;-72
2023/06/24 14:28:10;;;;;;;7.95;4.05;;;;;;;;;;5030060;28;20399;-71
2023/06/24 14:30:36;;;;;;;5.82;3.50;;;;;;;;;;5030205;28;20507;-70
2023/06/24 14:33:02;;;;;;;6.20;3.65;;;;;;;;;;5032319;28;20439;-72